sensor_id;sensor_type;location;lat;lon;timestamp;P1;durP1;ratioP1;P2;durP2;ratioP2
72198;SDS011;60103;51.014;16.992;2022-07-01T00:01:45;17.40;;;10.50;;
72198;SDS011;60103;51.014;16.992;2022-07-01T00:04:15;16.90;;;10.60;;
72198;SDS011;60103;51.014;16.992;2022-07-01T00:06:42;20.80;;;10.80;;
72198;SDS011;60103;51.014;16.992;2022-07-01T00:09:09;18.10;;;10.70;;
72198;SDS011;60103;51.014;16.992;2022-07-01T00:11:37;17.90;;;10.50;;
72198;SDS011;60103;51.014;16.992;2022-07-01T00:14:04;15.60;;;10.50;;
72198;SDS011;60103;51.014;16.992;2022-07-01T00:16:31;21.30;;;10.10;;
72198;SDS011;60103;51.014;16.992;2022-07-01T00:18:59;17.50;;;10.40;;
72198;SDS011;60103;51.014;16.992;2022-07-01T00:21:26;20.40;;;11.10;;
72198;SDS011;60103;51.014;16.992;2022-07-01T00:23:53;20.00;;;10.70;;
72198;SDS011;60103;51.014;16.992;2022-07-01T00:26:20;19.90;;;11.00;;
72198;SDS011;60103;51.014;16.992;2022-07-01T00:28:48;18.10;;;10.80;;
72198;SDS011;60103;51.014;16.992;2022-07-01T00:31:15;21.10;;;10.80;;
72198;SDS011;60103;51.014;16.992;2022-07-01T00:33:42;19.20;;;10.60;;
72198;SDS011;60103;51.014;16.992;2022-07-01T00:36:10;21.30;;;11.10;;
72198;SDS011;60103;51.014;16.992;2022-07-01T00:38:37;16.50;;;11.40;;
72198;SDS011;60103;51.014;16.992;2022-07-01T00:41:04;20.50;;;11.80;;
72198;SDS011;60103;51.014;16.992;2022-07-01T00:43:35;19.30;;;11.20;;
72198;SDS011;60103;51.014;16.992;2022-07-01T00:46:20;20.80;;;11.10;;
72198;SDS011;60103;51.014;16.992;2022-07-01T00:48:48;20.50;;;11.50;;
72198;SDS011;60103;51.014;16.992;2022-07-01T00:51:17;18.90;;;11.10;;
72198;SDS011;60103;51.014;16.992;2022-07-01T00:53:46;21.60;;;11.00;;
72198;SDS011;60103;51.014;16.992;2022-07-01T00:56:14;18.40;;;11.10;;
72198;SDS011;60103;51.014;16.992;2022-07-01T00:58:41;23.80;;;12.30;;
72198;SDS011;60103;51.014;16.992;2022-07-01T01:01:08;20.20;;;11.70;;
72198;SDS011;60103;51.014;16.992;2022-07-01T01:03:36;20.20;;;12.20;;
72198;SDS011;60103;51.014;16.992;2022-07-01T01:06:03;21.70;;;11.40;;
72198;SDS011;60103;51.014;16.992;2022-07-01T01:08:31;19.30;;;11.50;;
72198;SDS011;60103;51.014;16.992;2022-07-01T01:10:59;24.70;;;12.20;;
72198;SDS011;60103;51.014;16.992;2022-07-01T01:13:26;18.30;;;10.70;;
72198;SDS011;60103;51.014;16.992;2022-07-01T01:15:53;21.00;;;11.10;;
72198;SDS011;60103;51.014;16.992;2022-07-01T01:18:22;17.50;;;10.00;;
72198;SDS011;60103;51.014;16.992;2022-07-01T01:20:49;22.00;;;11.20;;
72198;SDS011;60103;51.014;16.992;2022-07-01T01:23:16;18.60;;;10.40;;
72198;SDS011;60103;51.014;16.992;2022-07-01T01:25:45;17.90;;;10.90;;
72198;SDS011;60103;51.014;16.992;2022-07-01T01:28:13;19.00;;;11.30;;
72198;SDS011;60103;51.014;16.992;2022-07-01T01:30:41;18.10;;;11.00;;
72198;SDS011;60103;51.014;16.992;2022-07-01T01:33:08;23.30;;;11.10;;
72198;SDS011;60103;51.014;16.992;2022-07-01T01:35:38;20.40;;;11.10;;
72198;SDS011;60103;51.014;16.992;2022-07-01T01:38:05;19.10;;;11.10;;
72198;SDS011;60103;51.014;16.992;2022-07-01T01:40:34;19.40;;;11.50;;
72198;SDS011;60103;51.014;16.992;2022-07-01T01:43:01;20.70;;;11.40;;
72198;SDS011;60103;51.014;16.992;2022-07-01T01:45:28;22.90;;;12.00;;
72198;SDS011;60103;51.014;16.992;2022-07-01T01:47:56;19.40;;;12.00;;
72198;SDS011;60103;51.014;16.992;2022-07-01T01:50:23;17.80;;;10.70;;
72198;SDS011;60103;51.014;16.992;2022-07-01T01:52:50;20.10;;;10.60;;
72198;SDS011;60103;51.014;16.992;2022-07-01T01:55:17;21.60;;;11.30;;
72198;SDS011;60103;51.014;16.992;2022-07-01T01:57:44;18.70;;;11.60;;
72198;SDS011;60103;51.014;16.992;2022-07-01T02:00:12;20.00;;;11.00;;
72198;SDS011;60103;51.014;16.992;2022-07-01T02:02:39;20.30;;;11.60;;
72198;SDS011;60103;51.014;16.992;2022-07-01T02:05:08;22.90;;;11.60;;
72198;SDS011;60103;51.014;16.992;2022-07-01T02:07:37;22.80;;;11.70;;
72198;SDS011;60103;51.014;16.992;2022-07-01T02:10:05;24.80;;;12.80;;
72198;SDS011;60103;51.014;16.992;2022-07-01T02:12:33;20.90;;;12.00;;
72198;SDS011;60103;51.014;16.992;2022-07-01T02:15:00;21.30;;;12.30;;
72198;SDS011;60103;51.014;16.992;2022-07-01T02:17:27;18.80;;;11.90;;
72198;SDS011;60103;51.014;16.992;2022-07-01T02:19:55;21.20;;;11.80;;
72198;SDS011;60103;51.014;16.992;2022-07-01T02:22:22;20.60;;;12.40;;
72198;SDS011;60103;51.014;16.992;2022-07-01T02:24:49;23.30;;;12.70;;
72198;SDS011;60103;51.014;16.992;2022-07-01T02:27:16;24.30;;;11.90;;
72198;SDS011;60103;51.014;16.992;2022-07-01T02:29:43;21.20;;;12.30;;
72198;SDS011;60103;51.014;16.992;2022-07-01T02:32:11;21.70;;;12.40;;
72198;SDS011;60103;51.014;16.992;2022-07-01T02:34:38;24.60;;;12.80;;
72198;SDS011;60103;51.014;16.992;2022-07-01T02:37:06;21.40;;;12.40;;
72198;SDS011;60103;51.014;16.992;2022-07-01T02:39:33;20.50;;;11.40;;
72198;SDS011;60103;51.014;16.992;2022-07-01T02:42:00;21.70;;;12.40;;
72198;SDS011;60103;51.014;16.992;2022-07-01T02:44:46;21.60;;;10.90;;
72198;SDS011;60103;51.014;16.992;2022-07-01T02:47:13;20.40;;;11.30;;
72198;SDS011;60103;51.014;16.992;2022-07-01T02:49:42;21.70;;;11.70;;
72198;SDS011;60103;51.014;16.992;2022-07-01T02:52:09;22.20;;;11.90;;
72198;SDS011;60103;51.014;16.992;2022-07-01T02:54:36;22.00;;;11.40;;
72198;SDS011;60103;51.014;16.992;2022-07-01T02:57:04;20.30;;;12.40;;
72198;SDS011;60103;51.014;16.992;2022-07-01T02:59:31;20.50;;;11.60;;
72198;SDS011;60103;51.014;16.992;2022-07-01T03:01:58;20.10;;;11.50;;
72198;SDS011;60103;51.014;16.992;2022-07-01T03:04:27;22.60;;;12.50;;
72198;SDS011;60103;51.014;16.992;2022-07-01T03:06:54;18.50;;;10.90;;
72198;SDS011;60103;51.014;16.992;2022-07-01T03:09:22;19.20;;;10.60;;
72198;SDS011;60103;51.014;16.992;2022-07-01T03:11:49;21.80;;;11.70;;
72198;SDS011;60103;51.014;16.992;2022-07-01T03:14:16;23.80;;;12.30;;
72198;SDS011;60103;51.014;16.992;2022-07-01T03:16:44;18.70;;;10.50;;
72198;SDS011;60103;51.014;16.992;2022-07-01T03:19:14;23.10;;;11.50;;
72198;SDS011;60103;51.014;16.992;2022-07-01T03:21:41;24.50;;;12.00;;
72198;SDS011;60103;51.014;16.992;2022-07-01T03:24:08;24.40;;;11.90;;
72198;SDS011;60103;51.014;16.992;2022-07-01T03:26:35;27.40;;;12.20;;
72198;SDS011;60103;51.014;16.992;2022-07-01T03:29:04;25.00;;;12.00;;
72198;SDS011;60103;51.014;16.992;2022-07-01T03:31:31;24.00;;;12.20;;
72198;SDS011;60103;51.014;16.992;2022-07-01T03:33:59;19.70;;;11.30;;
72198;SDS011;60103;51.014;16.992;2022-07-01T03:36:26;21.20;;;10.80;;
72198;SDS011;60103;51.014;16.992;2022-07-01T03:38:53;19.80;;;10.80;;
72198;SDS011;60103;51.014;16.992;2022-07-01T03:41:20;22.70;;;12.00;;
72198;SDS011;60103;51.014;16.992;2022-07-01T03:43:47;20.10;;;11.30;;
72198;SDS011;60103;51.014;16.992;2022-07-01T03:46:15;19.30;;;11.10;;
72198;SDS011;60103;51.014;16.992;2022-07-01T03:48:42;17.50;;;11.00;;
72198;SDS011;60103;51.014;16.992;2022-07-01T03:51:09;18.70;;;10.00;;
72198;SDS011;60103;51.014;16.992;2022-07-01T03:53:36;18.50;;;10.20;;
72198;SDS011;60103;51.014;16.992;2022-07-01T03:56:22;17.10;;;10.10;;
72198;SDS011;60103;51.014;16.992;2022-07-01T03:58:50;18.70;;;11.00;;
72198;SDS011;60103;51.014;16.992;2022-07-01T04:01:17;20.40;;;10.50;;
72198;SDS011;60103;51.014;16.992;2022-07-01T04:03:44;17.70;;;11.00;;
72198;SDS011;60103;51.014;16.992;2022-07-01T04:06:11;18.30;;;11.50;;
72198;SDS011;60103;51.014;16.992;2022-07-01T04:08:39;19.60;;;12.10;;
72198;SDS011;60103;51.014;16.992;2022-07-01T04:11:06;25.60;;;12.50;;
72198;SDS011;60103;51.014;16.992;2022-07-01T04:13:36;24.40;;;11.90;;
72198;SDS011;60103;51.014;16.992;2022-07-01T04:16:06;21.70;;;12.50;;
72198;SDS011;60103;51.014;16.992;2022-07-01T04:18:34;21.00;;;12.10;;
72198;SDS011;60103;51.014;16.992;2022-07-01T04:21:01;22.00;;;12.10;;
72198;SDS011;60103;51.014;16.992;2022-07-01T04:23:46;21.80;;;12.40;;
72198;SDS011;60103;51.014;16.992;2022-07-01T04:26:14;20.00;;;12.90;;
72198;SDS011;60103;51.014;16.992;2022-07-01T04:29:03;21.30;;;13.10;;
72198;SDS011;60103;51.014;16.992;2022-07-01T04:31:31;21.20;;;12.80;;
72198;SDS011;60103;51.014;16.992;2022-07-01T04:33:58;22.60;;;13.10;;
72198;SDS011;60103;51.014;16.992;2022-07-01T04:36:25;21.00;;;13.10;;
72198;SDS011;60103;51.014;16.992;2022-07-01T04:38:53;20.10;;;12.30;;
72198;SDS011;60103;51.014;16.992;2022-07-01T04:41:20;20.00;;;12.80;;
72198;SDS011;60103;51.014;16.992;2022-07-01T04:44:06;23.60;;;13.90;;
72198;SDS011;60103;51.014;16.992;2022-07-01T04:46:34;22.40;;;12.90;;
72198;SDS011;60103;51.014;16.992;2022-07-01T04:49:02;23.30;;;14.10;;
72198;SDS011;60103;51.014;16.992;2022-07-01T04:51:30;23.50;;;14.40;;
72198;SDS011;60103;51.014;16.992;2022-07-01T04:53:58;19.50;;;13.20;;
72198;SDS011;60103;51.014;16.992;2022-07-01T04:56:25;23.70;;;13.90;;
72198;SDS011;60103;51.014;16.992;2022-07-01T04:58:54;24.50;;;15.10;;
72198;SDS011;60103;51.014;16.992;2022-07-01T05:01:24;22.20;;;13.30;;
72198;SDS011;60103;51.014;16.992;2022-07-01T05:03:51;23.20;;;13.60;;
72198;SDS011;60103;51.014;16.992;2022-07-01T05:06:19;24.20;;;13.90;;
72198;SDS011;60103;51.014;16.992;2022-07-01T05:08:46;22.50;;;13.50;;
72198;SDS011;60103;51.014;16.992;2022-07-01T05:11:13;23.40;;;13.40;;
72198;SDS011;60103;51.014;16.992;2022-07-01T05:13:40;21.20;;;13.20;;
72198;SDS011;60103;51.014;16.992;2022-07-01T05:16:08;19.90;;;12.20;;
72198;SDS011;60103;51.014;16.992;2022-07-01T05:18:37;19.10;;;11.40;;
72198;SDS011;60103;51.014;16.992;2022-07-01T05:21:23;17.60;;;11.00;;
72198;SDS011;60103;51.014;16.992;2022-07-01T05:24:09;18.90;;;12.00;;
72198;SDS011;60103;51.014;16.992;2022-07-01T05:26:36;18.10;;;11.50;;
72198;SDS011;60103;51.014;16.992;2022-07-01T05:29:04;21.10;;;12.40;;
72198;SDS011;60103;51.014;16.992;2022-07-01T05:31:31;19.80;;;12.80;;
72198;SDS011;60103;51.014;16.992;2022-07-01T05:34:00;17.70;;;10.70;;
72198;SDS011;60103;51.014;16.992;2022-07-01T05:36:30;22.80;;;13.70;;
72198;SDS011;60103;51.014;16.992;2022-07-01T05:38:58;16.20;;;10.00;;
72198;SDS011;60103;51.014;16.992;2022-07-01T05:41:25;18.40;;;9.80;;
72198;SDS011;60103;51.014;16.992;2022-07-01T05:43:53;15.80;;;9.90;;
72198;SDS011;60103;51.014;16.992;2022-07-01T05:46:21;15.20;;;9.90;;
72198;SDS011;60103;51.014;16.992;2022-07-01T05:48:48;16.80;;;9.70;;
72198;SDS011;60103;51.014;16.992;2022-07-01T05:51:15;19.00;;;10.20;;
72198;SDS011;60103;51.014;16.992;2022-07-01T05:53:43;17.60;;;10.30;;
72198;SDS011;60103;51.014;16.992;2022-07-01T05:56:11;18.90;;;10.60;;
72198;SDS011;60103;51.014;16.992;2022-07-01T05:58:38;18.60;;;11.80;;
72198;SDS011;60103;51.014;16.992;2022-07-01T06:01:05;15.40;;;9.80;;
72198;SDS011;60103;51.014;16.992;2022-07-01T06:03:35;16.90;;;10.00;;
72198;SDS011;60103;51.014;16.992;2022-07-01T06:06:02;14.70;;;9.00;;
72198;SDS011;60103;51.014;16.992;2022-07-01T06:08:30;17.90;;;9.80;;
72198;SDS011;60103;51.014;16.992;2022-07-01T06:10:57;15.00;;;9.40;;
72198;SDS011;60103;51.014;16.992;2022-07-01T06:13:25;14.00;;;8.80;;
72198;SDS011;60103;51.014;16.992;2022-07-01T06:15:52;15.90;;;10.20;;
72198;SDS011;60103;51.014;16.992;2022-07-01T06:18:19;17.10;;;9.80;;
72198;SDS011;60103;51.014;16.992;2022-07-01T06:20:46;16.00;;;9.50;;
72198;SDS011;60103;51.014;16.992;2022-07-01T06:23:14;15.70;;;10.50;;
72198;SDS011;60103;51.014;16.992;2022-07-01T06:25:41;23.20;;;15.70;;
72198;SDS011;60103;51.014;16.992;2022-07-01T06:28:08;17.40;;;10.50;;
72198;SDS011;60103;51.014;16.992;2022-07-01T06:30:36;16.20;;;10.40;;
72198;SDS011;60103;51.014;16.992;2022-07-01T06:33:03;16.90;;;9.80;;
72198;SDS011;60103;51.014;16.992;2022-07-01T06:35:30;14.80;;;9.90;;
72198;SDS011;60103;51.014;16.992;2022-07-01T06:37:58;17.30;;;10.80;;
72198;SDS011;60103;51.014;16.992;2022-07-01T06:40:29;16.50;;;10.90;;
72198;SDS011;60103;51.014;16.992;2022-07-01T06:42:57;17.80;;;10.20;;
72198;SDS011;60103;51.014;16.992;2022-07-01T06:45:24;17.30;;;10.80;;
72198;SDS011;60103;51.014;16.992;2022-07-01T06:47:51;17.50;;;10.20;;
72198;SDS011;60103;51.014;16.992;2022-07-01T06:50:18;18.50;;;10.10;;
72198;SDS011;60103;51.014;16.992;2022-07-01T06:52:46;14.60;;;9.60;;
72198;SDS011;60103;51.014;16.992;2022-07-01T06:55:13;17.50;;;10.20;;
72198;SDS011;60103;51.014;16.992;2022-07-01T06:57:40;16.10;;;9.80;;
72198;SDS011;60103;51.014;16.992;2022-07-01T07:00:08;16.30;;;9.80;;
72198;SDS011;60103;51.014;16.992;2022-07-01T07:02:36;21.00;;;10.30;;
72198;SDS011;60103;51.014;16.992;2022-07-01T07:05:04;15.50;;;9.70;;
72198;SDS011;60103;51.014;16.992;2022-07-01T07:07:32;13.60;;;9.40;;
72198;SDS011;60103;51.014;16.992;2022-07-01T07:09:59;14.70;;;9.10;;
72198;SDS011;60103;51.014;16.992;2022-07-01T07:12:26;14.30;;;8.30;;
72198;SDS011;60103;51.014;16.992;2022-07-01T07:14:53;16.00;;;9.20;;
72198;SDS011;60103;51.014;16.992;2022-07-01T07:17:22;14.50;;;9.30;;
72198;SDS011;60103;51.014;16.992;2022-07-01T07:19:49;17.40;;;9.70;;
72198;SDS011;60103;51.014;16.992;2022-07-01T07:22:16;17.20;;;9.60;;
72198;SDS011;60103;51.014;16.992;2022-07-01T07:24:44;14.20;;;9.40;;
72198;SDS011;60103;51.014;16.992;2022-07-01T07:27:11;15.20;;;9.10;;
72198;SDS011;60103;51.014;16.992;2022-07-01T07:29:38;17.60;;;10.20;;
72198;SDS011;60103;51.014;16.992;2022-07-01T07:32:06;14.60;;;9.50;;
72198;SDS011;60103;51.014;16.992;2022-07-01T07:34:34;14.80;;;9.20;;
72198;SDS011;60103;51.014;16.992;2022-07-01T07:37:02;14.60;;;9.40;;
72198;SDS011;60103;51.014;16.992;2022-07-01T07:39:30;14.20;;;9.00;;
72198;SDS011;60103;51.014;16.992;2022-07-01T07:41:58;15.80;;;9.50;;
72198;SDS011;60103;51.014;16.992;2022-07-01T07:44:27;14.70;;;9.30;;
72198;SDS011;60103;51.014;16.992;2022-07-01T07:46:55;14.40;;;8.60;;
72198;SDS011;60103;51.014;16.992;2022-07-01T07:49:24;16.10;;;9.70;;
72198;SDS011;60103;51.014;16.992;2022-07-01T07:51:52;16.50;;;8.60;;
72198;SDS011;60103;51.014;16.992;2022-07-01T07:54:19;13.90;;;8.50;;
72198;SDS011;60103;51.014;16.992;2022-07-01T07:56:47;15.50;;;8.60;;
72198;SDS011;60103;51.014;16.992;2022-07-01T07:59:14;12.60;;;8.10;;
72198;SDS011;60103;51.014;16.992;2022-07-01T08:01:41;14.00;;;8.30;;
72198;SDS011;60103;51.014;16.992;2022-07-01T08:04:09;13.00;;;8.40;;
72198;SDS011;60103;51.014;16.992;2022-07-01T08:06:37;12.70;;;8.10;;
72198;SDS011;60103;51.014;16.992;2022-07-01T08:09:04;12.90;;;8.50;;
72198;SDS011;60103;51.014;16.992;2022-07-01T08:11:32;14.80;;;8.20;;
72198;SDS011;60103;51.014;16.992;2022-07-01T08:13:59;12.10;;;8.00;;
72198;SDS011;60103;51.014;16.992;2022-07-01T08:16:27;15.50;;;7.80;;
72198;SDS011;60103;51.014;16.992;2022-07-01T08:18:54;11.80;;;7.90;;
72198;SDS011;60103;51.014;16.992;2022-07-01T08:21:23;14.10;;;7.60;;
72198;SDS011;60103;51.014;16.992;2022-07-01T08:23:51;12.90;;;8.30;;
72198;SDS011;60103;51.014;16.992;2022-07-01T08:26:18;12.80;;;7.80;;
72198;SDS011;60103;51.014;16.992;2022-07-01T08:28:46;15.50;;;8.20;;
72198;SDS011;60103;51.014;16.992;2022-07-01T08:31:13;12.70;;;8.30;;
72198;SDS011;60103;51.014;16.992;2022-07-01T08:33:41;11.10;;;7.80;;
72198;SDS011;60103;51.014;16.992;2022-07-01T08:36:09;14.30;;;8.40;;
72198;SDS011;60103;51.014;16.992;2022-07-01T08:38:37;13.30;;;8.10;;
72198;SDS011;60103;51.014;16.992;2022-07-01T08:41:05;13.30;;;8.50;;
72198;SDS011;60103;51.014;16.992;2022-07-01T08:43:33;15.60;;;8.20;;
72198;SDS011;60103;51.014;16.992;2022-07-01T08:46:01;15.60;;;9.60;;
72198;SDS011;60103;51.014;16.992;2022-07-01T08:48:29;12.50;;;8.40;;
72198;SDS011;60103;51.014;16.992;2022-07-01T08:50:57;12.40;;;8.30;;
72198;SDS011;60103;51.014;16.992;2022-07-01T08:53:24;12.40;;;8.80;;
72198;SDS011;60103;51.014;16.992;2022-07-01T08:55:52;13.40;;;8.50;;
72198;SDS011;60103;51.014;16.992;2022-07-01T08:58:38;12.70;;;8.30;;
72198;SDS011;60103;51.014;16.992;2022-07-01T09:01:39;13.80;;;9.20;;
72198;SDS011;60103;51.014;16.992;2022-07-01T09:04:18;13.20;;;8.40;;
72198;SDS011;60103;51.014;16.992;2022-07-01T09:06:47;12.60;;;8.10;;
72198;SDS011;60103;51.014;16.992;2022-07-01T09:09:16;12.50;;;7.60;;
72198;SDS011;60103;51.014;16.992;2022-07-01T09:14:21;12.50;;;8.30;;
72198;SDS011;60103;51.014;16.992;2022-07-01T09:16:49;12.60;;;8.70;;
72198;SDS011;60103;51.014;16.992;2022-07-01T09:19:19;13.40;;;8.10;;
72198;SDS011;60103;51.014;16.992;2022-07-01T09:21:51;16.00;;;8.20;;
72198;SDS011;60103;51.014;16.992;2022-07-01T09:24:24;12.90;;;8.50;;
72198;SDS011;60103;51.014;16.992;2022-07-01T09:26:52;12.50;;;7.50;;
72198;SDS011;60103;51.014;16.992;2022-07-01T09:29:28;17.60;;;8.60;;
72198;SDS011;60103;51.014;16.992;2022-07-01T09:31:58;14.60;;;8.90;;
72198;SDS011;60103;51.014;16.992;2022-07-01T09:34:27;13.10;;;9.30;;
72198;SDS011;60103;51.014;16.992;2022-07-01T09:37:15;15.30;;;9.50;;
72198;SDS011;60103;51.014;16.992;2022-07-01T09:39:45;15.50;;;10.20;;
72198;SDS011;60103;51.014;16.992;2022-07-01T09:42:12;13.70;;;8.70;;
72198;SDS011;60103;51.014;16.992;2022-07-01T09:47:31;12.70;;;8.90;;
72198;SDS011;60103;51.014;16.992;2022-07-01T09:50:00;16.60;;;8.70;;
72198;SDS011;60103;51.014;16.992;2022-07-01T09:52:28;15.30;;;10.20;;
72198;SDS011;60103;51.014;16.992;2022-07-01T09:55:02;14.40;;;8.70;;
72198;SDS011;60103;51.014;16.992;2022-07-01T09:57:30;15.60;;;8.80;;
72198;SDS011;60103;51.014;16.992;2022-07-01T09:59:57;13.90;;;8.80;;
72198;SDS011;60103;51.014;16.992;2022-07-01T10:02:24;15.60;;;9.10;;
72198;SDS011;60103;51.014;16.992;2022-07-01T10:05:00;13.40;;;8.40;;
72198;SDS011;60103;51.014;16.992;2022-07-01T10:07:40;14.70;;;8.30;;
72198;SDS011;60103;51.014;16.992;2022-07-01T10:13:14;11.90;;;8.30;;
72198;SDS011;60103;51.014;16.992;2022-07-01T10:15:43;15.70;;;8.20;;
72198;SDS011;60103;51.014;16.992;2022-07-01T10:18:22;15.40;;;8.60;;
72198;SDS011;60103;51.014;16.992;2022-07-01T10:20:54;12.90;;;8.20;;
72198;SDS011;60103;51.014;16.992;2022-07-01T10:23:24;14.20;;;8.20;;
72198;SDS011;60103;51.014;16.992;2022-07-01T10:26:01;12.20;;;8.60;;
72198;SDS011;60103;51.014;16.992;2022-07-01T10:31:16;12.30;;;8.50;;
72198;SDS011;60103;51.014;16.992;2022-07-01T10:33:48;12.80;;;8.10;;
72198;SDS011;60103;51.014;16.992;2022-07-01T10:41:31;12.50;;;8.30;;
72198;SDS011;60103;51.014;16.992;2022-07-01T10:44:05;13.40;;;8.20;;
72198;SDS011;60103;51.014;16.992;2022-07-01T10:46:42;13.20;;;8.00;;
72198;SDS011;60103;51.014;16.992;2022-07-01T10:49:13;12.40;;;8.30;;
72198;SDS011;60103;51.014;16.992;2022-07-01T10:51:46;13.00;;;8.40;;
72198;SDS011;60103;51.014;16.992;2022-07-01T10:59:43;11.80;;;7.20;;
72198;SDS011;60103;51.014;16.992;2022-07-01T11:02:12;12.20;;;7.60;;
72198;SDS011;60103;51.014;16.992;2022-07-01T11:04:49;10.90;;;7.70;;
72198;SDS011;60103;51.014;16.992;2022-07-01T11:07:17;12.70;;;7.40;;
72198;SDS011;60103;51.014;16.992;2022-07-01T11:09:45;10.60;;;7.80;;
72198;SDS011;60103;51.014;16.992;2022-07-01T11:12:14;14.70;;;7.60;;
72198;SDS011;60103;51.014;16.992;2022-07-01T11:14:43;12.20;;;7.70;;
72198;SDS011;60103;51.014;16.992;2022-07-01T11:17:12;12.80;;;8.00;;
72198;SDS011;60103;51.014;16.992;2022-07-01T11:19:39;12.30;;;7.10;;
72198;SDS011;60103;51.014;16.992;2022-07-01T11:22:07;12.50;;;7.40;;
72198;SDS011;60103;51.014;16.992;2022-07-01T11:24:34;11.70;;;7.30;;
72198;SDS011;60103;51.014;16.992;2022-07-01T11:27:05;11.60;;;6.70;;
72198;SDS011;60103;51.014;16.992;2022-07-01T11:29:34;12.00;;;7.20;;
72198;SDS011;60103;51.014;16.992;2022-07-01T11:32:02;11.00;;;7.10;;
72198;SDS011;60103;51.014;16.992;2022-07-01T11:34:30;11.90;;;7.20;;
72198;SDS011;60103;51.014;16.992;2022-07-01T11:36:58;11.70;;;6.60;;
72198;SDS011;60103;51.014;16.992;2022-07-01T11:40:01;10.60;;;6.80;;
72198;SDS011;60103;51.014;16.992;2022-07-01T11:42:34;11.80;;;6.70;;
72198;SDS011;60103;51.014;16.992;2022-07-01T11:45:02;13.90;;;7.20;;
72198;SDS011;60103;51.014;16.992;2022-07-01T11:47:30;14.20;;;6.50;;
72198;SDS011;60103;51.014;16.992;2022-07-01T11:49:57;10.90;;;6.90;;
72198;SDS011;60103;51.014;16.992;2022-07-01T11:52:26;13.70;;;6.90;;
72198;SDS011;60103;51.014;16.992;2022-07-01T11:54:55;12.80;;;7.20;;
72198;SDS011;60103;51.014;16.992;2022-07-01T11:57:44;12.30;;;7.40;;
72198;SDS011;60103;51.014;16.992;2022-07-01T12:00:11;13.30;;;5.70;;
72198;SDS011;60103;51.014;16.992;2022-07-01T12:02:43;15.80;;;5.00;;
72198;SDS011;60103;51.014;16.992;2022-07-01T12:05:10;9.70;;;4.80;;
72198;SDS011;60103;51.014;16.992;2022-07-01T12:07:37;11.90;;;4.80;;
72198;SDS011;60103;51.014;16.992;2022-07-01T12:10:07;9.30;;;4.80;;
72198;SDS011;60103;51.014;16.992;2022-07-01T12:12:34;10.20;;;4.70;;
72198;SDS011;60103;51.014;16.992;2022-07-01T12:15:01;11.50;;;5.80;;
72198;SDS011;60103;51.014;16.992;2022-07-01T12:17:29;9.60;;;5.10;;
72198;SDS011;60103;51.014;16.992;2022-07-01T12:20:04;12.70;;;5.50;;
72198;SDS011;60103;51.014;16.992;2022-07-01T12:22:31;13.40;;;5.80;;
72198;SDS011;60103;51.014;16.992;2022-07-01T12:25:09;9.90;;;5.70;;
72198;SDS011;60103;51.014;16.992;2022-07-01T12:27:40;14.10;;;6.50;;
72198;SDS011;60103;51.014;16.992;2022-07-01T12:30:11;13.50;;;5.60;;
72198;SDS011;60103;51.014;16.992;2022-07-01T12:32:40;11.30;;;6.10;;
72198;SDS011;60103;51.014;16.992;2022-07-01T12:35:10;13.00;;;6.60;;
72198;SDS011;60103;51.014;16.992;2022-07-01T12:37:56;13.40;;;6.20;;
72198;SDS011;60103;51.014;16.992;2022-07-01T12:40:25;12.00;;;6.30;;
72198;SDS011;60103;51.014;16.992;2022-07-01T12:42:56;11.50;;;6.10;;
72198;SDS011;60103;51.014;16.992;2022-07-01T12:45:26;12.10;;;6.30;;
72198;SDS011;60103;51.014;16.992;2022-07-01T12:47:55;13.00;;;6.40;;
72198;SDS011;60103;51.014;16.992;2022-07-01T12:50:26;12.30;;;6.60;;
72198;SDS011;60103;51.014;16.992;2022-07-01T12:53:05;9.60;;;5.60;;
72198;SDS011;60103;51.014;16.992;2022-07-01T12:55:41;13.60;;;5.90;;
72198;SDS011;60103;51.014;16.992;2022-07-01T12:58:14;8.90;;;5.10;;
72198;SDS011;60103;51.014;16.992;2022-07-01T13:00:47;11.70;;;5.10;;
72198;SDS011;60103;51.014;16.992;2022-07-01T13:03:25;11.90;;;4.70;;
72198;SDS011;60103;51.014;16.992;2022-07-01T13:05:54;12.00;;;4.60;;
72198;SDS011;60103;51.014;16.992;2022-07-01T13:08:24;10.60;;;4.60;;
72198;SDS011;60103;51.014;16.992;2022-07-01T13:10:51;10.80;;;5.00;;
72198;SDS011;60103;51.014;16.992;2022-07-01T13:13:18;15.00;;;5.60;;
72198;SDS011;60103;51.014;16.992;2022-07-01T13:15:46;13.30;;;5.80;;
72198;SDS011;60103;51.014;16.992;2022-07-01T13:18:14;13.40;;;5.00;;
72198;SDS011;60103;51.014;16.992;2022-07-01T13:20:42;15.00;;;5.50;;
72198;SDS011;60103;51.014;16.992;2022-07-01T13:23:10;11.50;;;4.90;;
72198;SDS011;60103;51.014;16.992;2022-07-01T13:25:38;12.40;;;5.90;;
72198;SDS011;60103;51.014;16.992;2022-07-01T13:28:06;14.10;;;6.60;;
72198;SDS011;60103;51.014;16.992;2022-07-01T13:30:35;12.20;;;6.20;;
72198;SDS011;60103;51.014;16.992;2022-07-01T13:33:05;12.60;;;6.10;;
72198;SDS011;60103;51.014;16.992;2022-07-01T13:35:33;12.70;;;7.20;;
72198;SDS011;60103;51.014;16.992;2022-07-01T13:38:01;13.40;;;7.50;;
72198;SDS011;60103;51.014;16.992;2022-07-01T13:40:28;12.60;;;7.50;;
72198;SDS011;60103;51.014;16.992;2022-07-01T13:42:55;16.20;;;7.70;;
72198;SDS011;60103;51.014;16.992;2022-07-01T13:45:23;15.70;;;7.80;;
72198;SDS011;60103;51.014;16.992;2022-07-01T13:47:50;16.20;;;9.00;;
72198;SDS011;60103;51.014;16.992;2022-07-01T13:50:17;12.80;;;6.60;;
72198;SDS011;60103;51.014;16.992;2022-07-01T13:52:47;14.20;;;7.40;;
72198;SDS011;60103;51.014;16.992;2022-07-01T13:55:15;14.30;;;7.20;;
72198;SDS011;60103;51.014;16.992;2022-07-01T13:57:42;14.90;;;7.10;;
72198;SDS011;60103;51.014;16.992;2022-07-01T14:00:12;15.20;;;8.10;;
72198;SDS011;60103;51.014;16.992;2022-07-01T14:02:40;11.60;;;6.80;;
72198;SDS011;60103;51.014;16.992;2022-07-01T14:05:07;12.10;;;7.20;;
72198;SDS011;60103;51.014;16.992;2022-07-01T14:07:35;12.00;;;6.70;;
72198;SDS011;60103;51.014;16.992;2022-07-01T14:10:03;14.10;;;8.10;;
72198;SDS011;60103;51.014;16.992;2022-07-01T14:12:31;20.70;;;11.40;;
72198;SDS011;60103;51.014;16.992;2022-07-01T14:14:59;16.80;;;10.60;;
72198;SDS011;60103;51.014;16.992;2022-07-01T14:17:26;20.80;;;11.00;;
72198;SDS011;60103;51.014;16.992;2022-07-01T14:19:54;21.20;;;12.30;;
72198;SDS011;60103;51.014;16.992;2022-07-01T14:22:24;17.90;;;12.00;;
72198;SDS011;60103;51.014;16.992;2022-07-01T14:24:52;19.50;;;12.30;;
72198;SDS011;60103;51.014;16.992;2022-07-01T14:27:21;14.70;;;8.70;;
72198;SDS011;60103;51.014;16.992;2022-07-01T14:29:48;13.50;;;8.20;;
72198;SDS011;60103;51.014;16.992;2022-07-01T14:32:22;13.90;;;8.80;;
72198;SDS011;60103;51.014;16.992;2022-07-01T14:34:54;14.70;;;8.00;;
72198;SDS011;60103;51.014;16.992;2022-07-01T14:37:22;18.30;;;7.80;;
72198;SDS011;60103;51.014;16.992;2022-07-01T14:39:50;10.80;;;6.10;;
72198;SDS011;60103;51.014;16.992;2022-07-01T14:42:25;11.90;;;7.10;;
72198;SDS011;60103;51.014;16.992;2022-07-01T14:44:53;10.50;;;5.70;;
72198;SDS011;60103;51.014;16.992;2022-07-01T14:47:21;10.00;;;5.30;;
72198;SDS011;60103;51.014;16.992;2022-07-01T14:49:49;10.20;;;5.00;;